createdAt,value
2024-03-02T00:01:11.262Z,100498.19
2024-03-02T00:03:47.784Z,100505.05
2024-03-02T00:06:17.039Z,100503.69
2024-03-02T00:08:45.484Z,100506.09
2024-03-02T00:11:16.601Z,100500.70
2024-03-02T00:13:44.906Z,100499.39
2024-03-02T00:16:13.378Z,100495.94
2024-03-02T00:18:41.824Z,100488.91
2024-03-02T00:21:14.709Z,100482.15
2024-03-02T00:23:43.239Z,100481.23
2024-03-02T00:26:13.822Z,100482.73
2024-03-02T00:28:42.922Z,100489.02
2024-03-02T00:31:14.292Z,100490.23
2024-03-02T00:33:45.483Z,100488.95
2024-03-02T00:36:22.584Z,100489.80
2024-03-02T00:38:52.571Z,100484.61
2024-03-02T00:41:24.819Z,100474.55
2024-03-02T00:44:04.869Z,100472.55
2024-03-02T00:46:38.396Z,100482.23
2024-03-02T00:49:21.074Z,100476.52
2024-03-02T00:51:51.273Z,100475.89
2024-03-02T00:54:25.838Z,100474.90
2024-03-02T00:56:56.823Z,100477.38
2024-03-02T00:59:26.983Z,100482.91
2024-03-02T01:01:55.448Z,100488.65
2024-03-02T01:04:24.051Z,100479.88
2024-03-02T01:06:52.431Z,100471.67
2024-03-02T01:09:20.805Z,100473.45
2024-03-02T01:11:49.488Z,100473.52
2024-03-02T01:14:17.776Z,100466.95
2024-03-02T01:16:46.146Z,100464.49
2024-03-02T01:19:14.628Z,100469.19
2024-03-02T01:21:43.134Z,100474.15
2024-03-02T01:24:11.400Z,100475.05
2024-03-02T01:26:39.463Z,100473.02
2024-03-02T01:29:07.835Z,100478.27
2024-03-02T01:31:36.317Z,100477.66
2024-03-02T01:34:04.552Z,100468.36
2024-03-02T01:36:33.107Z,100462.67
2024-03-02T01:39:02.274Z,100463.53
2024-03-02T01:41:30.860Z,100464.39
2024-03-02T01:43:59.128Z,100458.02
2024-03-02T01:46:27.612Z,100456.94
2024-03-02T01:48:57.161Z,100459.35
2024-03-02T01:51:25.457Z,100452.66
2024-03-02T01:53:54.077Z,100451.98
2024-03-02T01:56:23.074Z,100454.55
2024-03-02T01:58:51.549Z,100453.77
2024-03-02T02:01:20.302Z,100449.52
2024-03-02T02:03:48.736Z,100440.23
2024-03-02T02:06:17.266Z,100430.67
2024-03-02T02:08:46.604Z,100428.67
2024-03-02T02:11:19.126Z,100427.33
2024-03-02T02:13:47.588Z,100426.27
2024-03-02T02:16:15.937Z,100430.09
2024-03-02T02:18:44.363Z,100426.84
2024-03-02T02:21:12.586Z,100430.02
2024-03-02T02:23:40.993Z,100429.95
2024-03-02T02:26:09.059Z,100417.80
2024-03-02T02:28:37.435Z,100416.43
2024-03-02T02:31:05.722Z,100421.64
2024-03-02T02:33:34.314Z,100408.28
2024-03-02T02:36:02.860Z,100406.71
2024-03-02T02:38:33.304Z,100406.47
2024-03-02T02:41:01.660Z,100411.38
2024-03-02T02:43:30.042Z,100417.20
2024-03-02T02:45:58.390Z,100415.86
2024-03-02T02:48:26.809Z,100423.48
2024-03-02T02:50:55.084Z,100429.88
2024-03-02T02:53:23.348Z,100440.56
2024-03-02T02:55:51.623Z,100446.86
2024-03-02T02:58:19.808Z,100449.36
2024-03-02T03:00:48.132Z,100450.02
2024-03-02T03:03:16.471Z,100453.14
2024-03-02T03:05:44.886Z,100451.02
2024-03-02T03:08:13.204Z,100445.56
2024-03-02T03:10:41.581Z,100446.74
2024-03-02T03:13:10.193Z,100443.52
2024-03-02T03:15:38.902Z,100439.66
2024-03-02T03:18:08.821Z,100436.86
2024-03-02T03:20:37.286Z,100437.04
2024-03-02T03:23:05.732Z,100439.49
2024-03-02T03:25:33.754Z,100438.25
2024-03-02T03:28:03.100Z,100440.80
2024-03-02T03:30:31.699Z,100445.70
2024-03-02T03:33:00.065Z,100445.71
2024-03-02T03:35:28.269Z,100437.80
2024-03-02T03:37:56.726Z,100432.70
2024-03-02T03:40:25.408Z,100427.29
2024-03-02T03:42:53.597Z,100425.52
2024-03-02T03:45:22.322Z,100430.86
2024-03-02T03:47:50.861Z,100438.55
2024-03-02T03:50:19.237Z,100435.79
2024-03-02T03:52:47.715Z,100438.96
2024-03-02T03:55:15.909Z,100440.23
2024-03-02T03:57:44.290Z,100438.98
2024-03-02T04:00:13.294Z,100438.23
2024-03-02T04:02:41.959Z,100436.75
2024-03-02T04:05:12.934Z,100429.05
2024-03-02T04:07:42.295Z,100431.48
2024-03-02T04:10:12.188Z,100429.23
2024-03-02T04:12:40.797Z,100421.94
2024-03-02T04:15:09.781Z,100417.02
2024-03-02T04:17:38.460Z,100417.67
2024-03-02T04:20:08.085Z,100424.51
2024-03-02T04:22:37.228Z,100427.66
2024-03-02T04:25:06.583Z,100431.22
2024-03-02T04:27:35.153Z,100427.99
2024-03-02T04:30:06.152Z,100428.84
2024-03-02T04:32:34.328Z,100431.80
2024-03-02T04:35:02.646Z,100431.33
2024-03-02T04:37:32.290Z,100429.95
2024-03-02T04:40:00.723Z,100431.68
2024-03-02T04:42:29.037Z,100433.12
2024-03-02T04:44:57.407Z,100428.28
2024-03-02T04:47:25.814Z,100420.64
2024-03-02T04:49:54.884Z,100420.59
2024-03-02T04:52:22.975Z,100417.29
2024-03-02T04:55:09.535Z,100411.14
2024-03-02T04:57:37.735Z,100412.26
2024-03-02T05:00:10.239Z,100410.65
2024-03-02T05:02:38.554Z,100424.70
2024-03-02T05:05:07.260Z,100427.61
2024-03-02T05:07:35.739Z,100420.87
2024-03-02T05:10:04.431Z,100421.30
2024-03-02T05:12:44.892Z,100427.64
2024-03-02T05:15:16.080Z,100431.13
2024-03-02T05:17:44.525Z,100432.80
2024-03-02T05:20:14.178Z,100437.29
2024-03-02T05:22:42.576Z,100438.84
2024-03-02T05:25:13.506Z,100442.35
2024-03-02T05:27:42.353Z,100446.88
2024-03-02T05:30:11.409Z,100448.86
2024-03-02T05:32:39.549Z,100448.16
2024-03-02T05:35:09.065Z,100454.12
2024-03-02T05:37:37.274Z,100458.59
2024-03-02T05:40:07.170Z,100456.70
2024-03-02T05:42:35.695Z,100458.27
2024-03-02T05:45:04.295Z,100462.67
2024-03-02T05:47:34.035Z,100466.09
2024-03-02T05:50:02.519Z,100465.86
2024-03-02T05:52:30.702Z,100471.32
2024-03-02T05:54:59.054Z,100470.70
2024-03-02T05:57:46.773Z,100471.09
2024-03-02T06:00:18.252Z,100471.85
2024-03-02T06:02:46.964Z,100469.15
2024-03-02T06:05:16.398Z,100468.25
2024-03-02T06:07:44.954Z,100466.21
2024-03-02T06:10:14.406Z,100463.08
2024-03-02T06:12:43.708Z,100462.54
2024-03-02T06:15:14.684Z,100457.35
2024-03-02T06:17:43.192Z,100454.05
2024-03-02T06:20:11.965Z,100456.09
2024-03-02T06:22:40.353Z,100459.34
2024-03-02T06:25:09.788Z,100458.77
2024-03-02T06:27:38.352Z,100454.51
2024-03-02T06:30:07.205Z,100449.88
2024-03-02T06:32:35.569Z,100441.32
2024-03-02T06:35:06.094Z,100439.48
2024-03-02T06:37:34.339Z,100437.84
2024-03-02T06:40:02.526Z,100436.71
2024-03-02T06:42:34.924Z,100438.41
2024-03-02T06:45:04.736Z,100441.42
2024-03-02T06:47:33.079Z,100441.61
2024-03-02T06:50:01.694Z,100438.44
2024-03-02T06:52:30.077Z,100444.52
2024-03-02T06:54:58.353Z,100444.68
2024-03-02T06:57:26.774Z,100441.95
2024-03-02T07:00:00.158Z,100438.31
2024-03-02T07:02:29.343Z,100441.48
2024-03-02T07:04:57.906Z,100439.05
2024-03-02T07:07:26.068Z,100435.64
2024-03-02T07:09:54.216Z,100431.52
2024-03-02T07:12:22.664Z,100432.73
2024-03-02T07:15:06.202Z,100433.86
2024-03-02T07:17:35.071Z,100439.53
2024-03-02T07:20:04.965Z,100448.27
2024-03-02T07:22:34.569Z,100447.23
2024-03-02T07:25:03.997Z,100448.59
2024-03-02T07:27:33.417Z,100444.58
2024-03-02T07:30:01.680Z,100438.89
2024-03-02T07:32:30.043Z,100441.83
2024-03-02T07:34:58.225Z,100443.63
2024-03-02T07:37:26.491Z,100446.23
2024-03-02T07:39:54.695Z,100441.56
2024-03-02T07:42:22.992Z,100439.46
2024-03-02T07:44:51.113Z,100443.56
2024-03-02T07:47:19.386Z,100442.98
2024-03-02T07:49:47.957Z,100448.91
2024-03-02T07:52:16.337Z,100445.61
2024-03-02T07:54:44.407Z,100441.73
2024-03-02T07:57:12.898Z,100442.39
2024-03-02T07:59:41.177Z,100438.31
2024-03-02T08:02:09.904Z,100440.36
2024-03-02T08:04:38.344Z,100441.14
2024-03-02T08:07:07.420Z,100438.17
2024-03-02T08:09:35.726Z,100441.77
2024-03-02T08:12:05.441Z,100444.40
2024-03-02T08:14:33.636Z,100443.61
2024-03-02T08:17:03.007Z,100448.66
2024-03-02T08:19:31.882Z,100455.02
2024-03-02T08:22:01.079Z,100454.45
2024-03-02T08:24:29.699Z,100451.31
2024-03-02T08:26:58.660Z,100451.98
2024-03-02T08:29:26.970Z,100448.39
2024-03-02T08:31:55.641Z,100438.86
2024-03-02T08:34:23.907Z,100441.35
2024-03-02T08:36:52.619Z,100436.61
2024-03-02T08:39:22.121Z,100438.07
2024-03-02T08:41:50.456Z,100438.27
2024-03-02T08:44:18.786Z,100429.70
2024-03-02T08:46:47.629Z,100424.77
2024-03-02T08:49:15.844Z,100422.45
2024-03-02T08:51:44.127Z,100425.77
2024-03-02T08:54:12.376Z,100423.84
2024-03-02T08:56:40.699Z,100422.71
2024-03-02T08:59:09.434Z,100421.89
2024-03-02T09:01:42.883Z,100421.51
2024-03-02T09:04:11.251Z,100417.17
2024-03-02T09:06:39.906Z,100419.14
2024-03-02T09:09:08.191Z,100427.58
2024-03-02T09:11:37.874Z,100427.57
2024-03-02T09:14:06.370Z,100427.88
2024-03-02T09:16:34.754Z,100422.13
2024-03-02T09:19:03.091Z,100418.41
2024-03-02T09:21:31.555Z,100416.61
2024-03-02T09:23:59.961Z,100416.01
2024-03-02T09:26:28.679Z,100416.19
2024-03-02T09:28:57.028Z,100415.54
2024-03-02T09:31:25.178Z,100412.54
2024-03-02T09:33:53.448Z,100409.81
2024-03-02T09:36:23.633Z,100409.04
2024-03-02T09:38:51.809Z,100409.35
2024-03-02T09:41:20.814Z,100407.02
2024-03-02T09:43:50.206Z,100403.53
2024-03-02T09:46:20.593Z,100404.48
2024-03-02T09:48:48.769Z,100402.58
2024-03-02T09:51:20.788Z,100399.23
2024-03-02T09:53:50.176Z,100397.19
2024-03-02T09:56:19.576Z,100396.01
2024-03-02T09:58:47.845Z,100398.44
2024-03-02T10:01:16.283Z,100397.25
2024-03-02T10:03:47.129Z,100385.04
2024-03-02T10:06:29.570Z,100381.14
2024-03-02T10:08:58.053Z,100377.66
2024-03-02T10:11:35.354Z,100382.77
2024-03-02T10:14:14.079Z,100377.66
2024-03-02T10:16:44.276Z,100366.20
2024-03-02T10:19:22.731Z,100361.10
2024-03-02T10:21:52.954Z,100358.53
2024-03-02T10:24:23.533Z,100360.67
2024-03-02T10:26:52.450Z,100352.76
2024-03-02T10:29:20.781Z,100348.85
2024-03-02T10:31:49.174Z,100347.77
2024-03-02T10:34:17.648Z,100345.77
2024-03-02T10:36:48.993Z,100342.85
2024-03-02T10:39:18.627Z,100341.76
2024-03-02T10:41:49.176Z,100339.61
2024-03-02T10:44:17.794Z,100339.77
2024-03-02T10:46:48.747Z,100338.62
2024-03-02T10:49:16.822Z,100339.89
2024-03-02T10:51:45.372Z,100342.94
2024-03-02T10:54:13.648Z,100340.23
2024-03-02T10:56:43.791Z,100341.63
2024-03-02T10:59:38.107Z,100337.98
2024-03-02T11:02:09.809Z,100341.23
2024-03-02T11:04:40.135Z,100339.48
2024-03-02T11:07:13.980Z,100345.66
2024-03-02T11:09:46.279Z,100341.73
2024-03-02T11:12:24.656Z,100340.81
2024-03-02T11:14:55.870Z,100343.58
2024-03-02T11:17:26.045Z,100345.09
2024-03-02T11:19:54.761Z,100347.41
2024-03-02T11:22:23.229Z,100348.02
2024-03-02T11:24:53.523Z,100349.25
2024-03-02T11:27:47.235Z,100346.13
2024-03-02T11:30:34.345Z,100347.29
2024-03-02T11:33:11.511Z,100340.06
2024-03-02T11:35:49.749Z,100345.55
2024-03-02T11:38:19.123Z,100350.45
2024-03-02T11:40:48.286Z,100349.02
2024-03-02T11:43:16.546Z,100349.67
2024-03-02T11:45:46.096Z,100350.27
2024-03-02T11:48:17.636Z,100347.13
2024-03-02T11:50:52.144Z,100347.28
2024-03-02T11:53:22.210Z,100345.90
2024-03-02T11:55:51.482Z,100341.67
2024-03-02T11:58:22.236Z,100341.45
2024-03-02T12:00:57.848Z,100343.98
2024-03-02T12:03:27.746Z,100344.09
2024-03-02T12:05:57.268Z,100344.20
2024-03-02T12:08:25.984Z,100343.07
2024-03-02T12:10:59.559Z,100337.21
2024-03-02T12:13:28.366Z,100337.60
2024-03-02T12:15:59.794Z,100338.84
2024-03-02T12:18:28.335Z,100339.45
2024-03-02T12:20:59.303Z,100336.23
2024-03-02T12:23:28.216Z,100333.55
2024-03-02T12:25:56.990Z,100333.36
2024-03-02T12:28:25.263Z,100328.33
2024-03-02T12:30:53.728Z,100329.41
2024-03-02T12:33:22.541Z,100332.17
2024-03-02T12:35:51.786Z,100327.68
2024-03-02T12:38:21.104Z,100321.50
2024-03-02T12:40:51.076Z,100317.58
2024-03-02T12:43:20.061Z,100309.82
2024-03-02T12:45:48.986Z,100312.63
2024-03-02T12:48:17.395Z,100316.66
2024-03-02T12:50:45.979Z,100323.22
2024-03-02T12:53:20.524Z,100329.21
2024-03-02T12:55:50.442Z,100327.36
2024-03-02T12:58:21.180Z,100322.40
2024-03-02T13:00:50.255Z,100323.88
2024-03-02T13:03:24.090Z,100318.70
2024-03-02T13:05:54.534Z,100312.98
2024-03-02T13:08:22.932Z,100301.88
2024-03-02T13:10:51.178Z,100302.91
2024-03-02T13:13:19.744Z,100306.83
2024-03-02T13:15:48.363Z,100303.46
2024-03-02T13:18:19.685Z,100307.77
2024-03-02T13:20:48.151Z,100310.38
2024-03-02T13:23:16.419Z,100312.79
2024-03-02T13:25:44.696Z,100314.20
2024-03-02T13:28:13.378Z,100314.29
2024-03-02T13:30:42.435Z,100315.31
2024-03-02T13:33:11.210Z,100314.96
2024-03-02T13:35:39.276Z,100317.02
2024-03-02T13:38:07.505Z,100315.59
2024-03-02T13:40:36.965Z,100318.67
2024-03-02T13:43:06.207Z,100320.71
2024-03-02T13:45:34.975Z,100323.86
2024-03-02T13:48:04.802Z,100320.39
2024-03-02T13:50:33.924Z,100322.03
2024-03-02T13:53:04.242Z,100322.67
2024-03-02T13:55:32.934Z,100319.41
2024-03-02T13:58:01.596Z,100319.66
2024-03-02T14:00:30.974Z,100322.05
2024-03-02T14:02:59.395Z,100316.80
2024-03-02T14:05:28.361Z,100313.62
2024-03-02T14:07:56.671Z,100320.36
2024-03-02T14:10:25.071Z,100321.23
2024-03-02T14:12:53.352Z,100320.44
2024-03-02T14:15:22.062Z,100318.08
2024-03-02T14:17:50.945Z,100318.93
2024-03-02T14:20:23.634Z,100311.79
2024-03-02T14:22:52.072Z,100307.81
2024-03-02T14:25:20.928Z,100305.69
2024-03-02T14:28:07.956Z,100305.08
2024-03-02T14:30:38.489Z,100311.19
2024-03-02T14:33:07.233Z,100310.63
2024-03-02T14:35:36.019Z,100309.99
2024-03-02T14:38:06.113Z,100312.08
2024-03-02T14:40:34.555Z,100313.25
2024-03-02T14:43:02.732Z,100312.30
2024-03-02T14:45:31.249Z,100311.71
2024-03-02T14:48:02.747Z,100311.31
2024-03-02T14:50:31.769Z,100312.38
2024-03-02T14:53:00.125Z,100312.80
2024-03-02T14:55:28.733Z,100312.51
2024-03-02T14:57:56.932Z,100315.65
2024-03-02T15:00:25.196Z,100322.02
2024-03-02T15:02:53.376Z,100323.30
2024-03-02T15:05:21.537Z,100328.17
2024-03-02T15:07:49.602Z,100333.44
2024-03-02T15:10:18.386Z,100332.41
2024-03-02T15:12:47.087Z,100330.95
2024-03-02T15:15:15.840Z,100335.03
2024-03-02T15:17:44.620Z,100340.52
2024-03-02T15:20:13.254Z,100344.60
2024-03-02T15:22:42.421Z,100346.95
2024-03-02T15:25:11.066Z,100351.46
2024-03-02T15:27:39.600Z,100353.12
2024-03-02T15:30:08.472Z,100356.28
2024-03-02T15:32:38.122Z,100358.58
2024-03-02T15:35:07.692Z,100360.64
2024-03-02T15:37:35.980Z,100362.98
2024-03-02T15:40:07.991Z,100365.44
2024-03-02T15:42:37.022Z,100368.85
2024-03-02T15:45:06.107Z,100370.52
2024-03-02T15:47:34.953Z,100372.94
2024-03-02T15:50:05.335Z,100372.79
2024-03-02T15:52:33.602Z,100378.02
2024-03-02T15:55:02.953Z,100384.64
2024-03-02T15:57:31.895Z,100386.55
2024-03-02T16:00:00.140Z,100388.06
2024-03-02T16:02:28.806Z,100389.79
2024-03-02T16:04:57.928Z,100394.41
2024-03-02T16:07:26.046Z,100392.96
2024-03-02T16:09:54.306Z,100393.55
2024-03-02T16:12:23.201Z,100398.62
2024-03-02T16:14:52.806Z,100394.64
2024-03-02T16:17:20.913Z,100401.16
2024-03-02T16:19:49.735Z,100404.02
2024-03-02T16:22:18.338Z,100403.11
2024-03-02T16:24:46.576Z,100402.88
2024-03-02T16:27:14.992Z,100404.84
2024-03-02T16:29:43.366Z,100407.76
2024-03-02T16:32:11.860Z,100408.29
2024-03-02T16:34:40.227Z,100410.14
2024-03-02T16:37:08.546Z,100412.58
2024-03-02T16:39:36.864Z,100415.52
2024-03-02T16:42:04.926Z,100419.13
2024-03-02T16:44:33.038Z,100417.86
2024-03-02T16:47:01.343Z,100420.88
2024-03-02T16:49:30.909Z,100424.20
2024-03-02T16:51:59.217Z,100427.55
2024-03-02T16:54:27.902Z,100425.50
2024-03-02T16:56:56.244Z,100431.94
2024-03-02T16:59:24.621Z,100431.80
2024-03-02T17:01:52.915Z,100431.63
2024-03-02T17:04:25.057Z,100432.67
2024-03-02T17:06:53.523Z,100438.62
2024-03-02T17:09:22.971Z,100438.21
2024-03-02T17:11:51.273Z,100440.89
2024-03-02T17:14:19.458Z,100442.09
2024-03-02T17:16:47.661Z,100441.07
2024-03-02T17:19:16.089Z,100438.06
2024-03-02T17:21:44.652Z,100436.05
2024-03-02T17:24:12.804Z,100437.14
2024-03-02T17:26:41.061Z,100440.00
2024-03-02T17:29:09.594Z,100439.23
2024-03-02T17:31:37.944Z,100439.95
2024-03-02T17:34:06.361Z,100441.98
2024-03-02T17:36:34.632Z,100445.67
2024-03-02T17:39:05.274Z,100448.05
2024-03-02T17:41:33.725Z,100446.38
2024-03-02T17:44:02.192Z,100449.54
2024-03-02T17:46:30.232Z,100447.46
2024-03-02T17:48:58.480Z,100450.85
2024-03-02T17:51:26.882Z,100452.52
2024-03-02T17:53:55.219Z,100457.61
2024-03-02T17:56:23.570Z,100459.70
2024-03-02T17:58:51.885Z,100456.83
2024-03-02T18:01:20.301Z,100455.66
2024-03-02T18:03:48.926Z,100456.48
2024-03-02T18:06:17.212Z,100454.65
2024-03-02T18:08:45.588Z,100454.05
2024-03-02T18:11:18.115Z,100457.11
2024-03-02T18:13:47.133Z,100460.21
2024-03-02T18:16:16.306Z,100461.64
2024-03-02T18:18:44.951Z,100461.05
2024-03-02T18:21:13.328Z,100461.29
2024-03-02T18:23:42.913Z,100466.36
2024-03-02T18:26:11.314Z,100471.80
2024-03-02T18:28:41.157Z,100468.67
2024-03-02T18:31:12.258Z,100475.00
2024-03-02T18:33:40.804Z,100477.03
2024-03-02T18:36:09.817Z,100477.77
2024-03-02T18:38:37.977Z,100479.05
2024-03-02T18:41:06.460Z,100478.62
2024-03-02T18:43:34.752Z,100477.79
2024-03-02T18:46:04.006Z,100476.45
2024-03-02T18:48:32.243Z,100475.14
2024-03-02T18:51:05.800Z,100478.98
2024-03-02T18:53:33.886Z,100478.02
2024-03-02T18:56:01.987Z,100478.12
2024-03-02T18:58:31.480Z,100481.38
2024-03-02T19:00:59.972Z,100480.70
2024-03-02T19:03:28.642Z,100483.72
2024-03-02T19:05:56.909Z,100485.99
2024-03-02T19:08:28.462Z,100490.64
2024-03-02T19:10:56.466Z,100493.02
2024-03-02T19:13:27.698Z,100493.16
2024-03-02T19:15:55.868Z,100494.16
2024-03-02T19:18:24.337Z,100500.39
2024-03-02T19:20:52.914Z,100498.14
2024-03-02T19:23:25.817Z,100496.51
2024-03-02T19:26:00.444Z,100499.13
2024-03-02T19:28:28.802Z,100505.75
2024-03-02T19:30:57.155Z,100512.02
2024-03-02T19:33:26.629Z,100511.16
2024-03-02T19:35:55.728Z,100512.72
2024-03-02T19:38:26.030Z,100515.64
2024-03-02T19:40:54.199Z,100515.63
2024-03-02T19:43:22.435Z,100517.30
2024-03-02T19:45:50.619Z,100515.02
2024-03-02T19:48:19.306Z,100515.02
2024-03-02T19:50:49.072Z,100516.19
2024-03-02T19:53:17.125Z,100517.96
2024-03-02T19:55:45.735Z,100523.48
2024-03-02T19:58:14.236Z,100524.31
2024-03-02T20:00:42.973Z,100524.94
2024-03-02T20:03:12.355Z,100526.54
2024-03-02T20:05:40.731Z,100527.66
2024-03-02T20:08:09.093Z,100528.63
2024-03-02T20:10:37.474Z,100529.46
2024-03-02T20:13:07.250Z,100530.13
2024-03-02T20:15:35.833Z,100528.17
2024-03-02T20:18:04.263Z,100527.39
2024-03-02T20:20:32.639Z,100524.24
2024-03-02T20:23:00.816Z,100526.48
2024-03-02T20:25:29.719Z,100526.70
2024-03-02T20:28:00.318Z,100524.60
2024-03-02T20:30:28.535Z,100528.63
2024-03-02T20:32:57.006Z,100527.75
2024-03-02T20:35:25.177Z,100525.19
2024-03-02T20:37:53.960Z,100525.80
2024-03-02T20:40:22.221Z,100526.65
2024-03-02T20:42:50.722Z,100525.89
2024-03-02T20:45:19.863Z,100526.96
2024-03-02T20:47:48.269Z,100530.67
2024-03-02T20:50:16.726Z,100528.44
2024-03-02T20:52:46.598Z,100527.74
2024-03-02T20:55:15.154Z,100523.84
2024-03-02T20:57:43.489Z,100524.76
2024-03-02T21:00:12.113Z,100523.66
2024-03-02T21:02:40.711Z,100524.98
2024-03-02T21:05:09.585Z,100520.91
2024-03-02T21:07:39.522Z,100522.69
2024-03-02T21:10:10.065Z,100522.32
2024-03-02T21:12:40.068Z,100520.11
2024-03-02T21:15:08.826Z,100520.98
2024-03-02T21:17:37.242Z,100523.95
2024-03-02T21:20:09.691Z,100526.73
2024-03-02T21:22:39.662Z,100523.64
2024-03-02T21:25:13.158Z,100525.48
2024-03-02T21:27:42.044Z,100528.91
2024-03-02T21:30:11.597Z,100532.75
2024-03-02T21:32:39.900Z,100534.57
2024-03-02T21:35:08.686Z,100533.77
2024-03-02T21:37:37.037Z,100533.16
2024-03-02T21:40:06.268Z,100532.89
2024-03-02T21:42:34.590Z,100533.70
2024-03-02T21:45:02.914Z,100531.61
2024-03-02T21:47:31.496Z,100534.30
2024-03-02T21:49:59.960Z,100534.31
2024-03-02T21:52:28.103Z,100536.90
2024-03-02T21:54:56.663Z,100538.16
2024-03-02T21:57:26.148Z,100538.20
2024-03-02T21:59:54.318Z,100536.94
2024-03-02T22:02:22.450Z,100537.92
2024-03-02T22:04:50.738Z,100537.04
2024-03-02T22:07:19.004Z,100537.98
2024-03-02T22:09:47.634Z,100537.59
2024-03-02T22:12:15.870Z,100538.52
2024-03-02T22:14:44.146Z,100540.01
2024-03-02T22:17:13.341Z,100540.41
2024-03-02T22:19:41.646Z,100538.74
2024-03-02T22:22:10.370Z,100538.64
2024-03-02T22:24:39.193Z,100536.79
2024-03-02T22:27:07.475Z,100534.86
2024-03-02T22:29:36.054Z,100535.80
2024-03-02T22:32:06.969Z,100533.77
2024-03-02T22:34:35.969Z,100536.34
2024-03-02T22:37:04.920Z,100538.17
2024-03-02T22:39:33.143Z,100534.04
2024-03-02T22:42:01.543Z,100535.50
2024-03-02T22:44:29.642Z,100535.86
2024-03-02T22:46:57.873Z,100532.04
2024-03-02T22:49:25.957Z,100533.75
2024-03-02T22:51:54.174Z,100532.01
2024-03-02T22:54:22.398Z,100531.35
2024-03-02T22:56:50.703Z,100528.32
2024-03-02T22:59:18.864Z,100525.87
2024-03-02T23:01:47.299Z,100521.33
2024-03-02T23:04:15.944Z,100524.77
2024-03-02T23:06:44.330Z,100527.66
2024-03-02T23:09:15.738Z,100528.29
2024-03-02T23:11:44.223Z,100530.52
2024-03-02T23:14:12.403Z,100529.84
2024-03-02T23:16:45.493Z,100532.59
2024-03-02T23:19:15.420Z,100531.92
2024-03-02T23:21:43.934Z,100533.64
2024-03-02T23:24:12.261Z,100533.73
2024-03-02T23:26:40.578Z,100536.20
2024-03-02T23:29:08.693Z,100542.31
2024-03-02T23:31:37.016Z,100544.89
2024-03-02T23:34:05.511Z,100542.56
2024-03-02T23:36:33.850Z,100543.39
2024-03-02T23:39:05.699Z,100542.98
2024-03-02T23:41:35.202Z,100544.06
2024-03-02T23:44:03.701Z,100546.82
2024-03-02T23:46:32.681Z,100547.88
2024-03-02T23:49:00.994Z,100547.60
2024-03-02T23:51:29.153Z,100552.91
2024-03-02T23:53:57.737Z,100550.69
2024-03-02T23:56:26.090Z,100549.17
2024-03-02T23:58:54.487Z,100549.34
